EGLL/LHR METAR and TAF weather

Enter ICAO airport designator
Station Type Date Time Source
EGLL METAR 2019/08/21 22:20 UTC NOAA

EGLL 212220Z AUTO 21007KT 9999 NCD 15/11 Q1025


Station Type Date Time Source
EGLL Decoded METAR 2019/08/21 22:20 UTC NOAA

Station name not available
Aug 21, 2019 - 06:20 PM EDT / 2019.08.21 2220 UTC
Wind: from the SSW (210 degrees) at 8 MPH (7 KT):0
Visibility: greater than 7 mile(s):0
Temperature: 59 F (15 C)
Dew Point: 51 F (11 C)
Relative Humidity: 76%
Pressure (altimeter): 30.27 in. Hg (1025 hPa)
ob: EGLL 212220Z AUTO 21007KT 9999 NCD 15/11 Q1025
cycle: 22

Station Type Date Time Source
EGLL TAF 2019/08/21 18:06 UTC NOAA

TAF EGLL 211655Z 2118/2224 20006KT 9999 FEW040 PROB30 2204/2207 8000

Example: see airport list